Time;durP1;ratioP1;P1;durP2;ratioP2;P2;SDS_P1;SDS_P2;PMS_P1;PMS_P2;Temp;Humidity;BMP_temperature;BMP_pressure;BME280_temperature;BME280_humidity;BME280_pressure;Samples;Min_cycle;Max_cycle;Signal;HPM_P1;HPM_P2
2023/11/08 00:00:13;;;;;;;1.67;0.80;;;7.50;99.90;;;;;;6212794;28;20056;-80
2023/11/08 00:03:15;;;;;;;3.92;1.48;;;7.40;99.90;;;;;;6210735;28;20491;-78
2023/11/08 00:06:17;;;;;;;2.60;0.50;;;7.50;99.90;;;;;;6221023;28;20053;-76
2023/11/08 00:09:19;;;;;;;2.38;1.17;;;7.60;99.90;;;;;;6221085;28;20046;-80
2023/11/08 00:12:24;;;;;;;1.38;1.10;;;7.70;99.90;;;;;;6218141;28;20072;-78
2023/11/08 00:15:26;;;;;;;6.05;1.27;;;7.80;99.90;;;;;;6216300;28;20187;-80
2023/11/08 00:18:28;;;;;;;2.08;1.30;;;7.90;99.90;;;;;;6217579;28;20039;-80
2023/11/08 00:21:30;;;;;;;2.38;0.98;;;7.90;99.90;;;;;;6216749;28;20038;-80
2023/11/08 00:24:31;;;;;;;9.55;1.23;;;7.90;99.90;;;;;;6223268;28;20049;-80
2023/11/08 00:27:35;;;;;;;3.08;1.48;;;8.00;99.90;;;;;;6210959;28;20137;-78
2023/11/08 00:30:36;;;;;;;3.50;1.40;;;8.00;99.90;;;;;;6207228;28;20049;-80
2023/11/08 00:33:38;;;;;;;2.90;0.90;;;8.00;99.90;;;;;;6214524;28;20053;-79
2023/11/08 00:36:40;;;;;;;1.42;0.90;;;8.00;99.90;;;;;;6216988;28;20046;-78
2023/11/08 00:39:42;;;;;;;1.95;0.82;;;8.10;99.90;;;;;;6215295;28;20428;-79
2023/11/08 00:42:45;;;;;;;1.40;1.10;;;8.20;99.90;;;;;;6208517;28;20167;-79
2023/11/08 00:45:47;;;;;;;2.55;1.30;;;8.20;99.90;;;;;;6211699;28;20049;-79
2023/11/08 00:48:49;;;;;;;2.78;1.20;;;8.20;99.90;;;;;;6213086;28;20174;-80
2023/11/08 00:51:50;;;;;;;4.13;1.02;;;8.10;99.90;;;;;;6217803;28;20416;-80
2023/11/08 00:54:53;;;;;;;1.35;0.98;;;8.00;99.90;;;;;;6211243;28;20038;-80
2023/11/08 00:57:57;;;;;;;1.17;0.77;;;8.00;99.90;;;;;;6218427;28;20045;-80
2023/11/08 01:08:53;;;;;;;2.22;1.50;;;8.00;99.90;;;;;;6224263;28;20383;-79
2023/11/08 01:12:33;;;;;;;2.35;1.00;;;7.90;99.90;;;;;;6216995;28;20046;-80
2023/11/08 01:24:15;;;;;;;2.05;0.90;;;7.60;99.90;;;;;;6210175;28;20037;-79
2023/11/08 01:27:46;;;;;;;3.17;0.80;;;7.60;99.90;;;;;;6204307;28;20058;-80
2023/11/08 01:35:28;;;;;;;3.13;1.35;;;7.50;99.90;;;;;;6227431;28;20633;-80
2023/11/08 01:38:30;;;;;;;1.35;1.02;;;7.50;99.90;;;;;;6208622;28;20125;-80
2023/11/08 01:41:32;;;;;;;6.85;1.17;;;7.40;99.90;;;;;;6220892;28;20053;-80
2023/11/08 01:44:35;;;;;;;3.58;0.95;;;7.40;99.90;;;;;;6221586;28;20038;-79
2023/11/08 01:47:37;;;;;;;1.13;1.00;;;7.40;99.90;;;;;;6228499;28;20421;-79
2023/11/08 01:50:39;;;;;;;1.73;1.15;;;7.40;99.90;;;;;;6219700;28;20046;-80
2023/11/08 01:53:41;;;;;;;0.98;0.75;;;7.30;99.90;;;;;;6223879;28;20038;-80
2023/11/08 01:56:45;;;;;;;2.35;1.08;;;7.40;99.90;;;;;;6215924;28;20073;-80
2023/11/08 01:59:49;;;;;;;0.68;0.68;;;7.30;99.90;;;;;;6224212;28;20057;-80
2023/11/08 02:02:52;;;;;;;5.78;1.08;;;7.40;99.90;;;;;;6225565;28;20042;-80
2023/11/08 02:05:54;;;;;;;1.88;1.13;;;7.40;99.90;;;;;;6217741;28;20418;-80
2023/11/08 02:08:56;;;;;;;2.10;0.70;;;7.40;99.90;;;;;;6216916;28;20046;-79
2023/11/08 02:12:00;;;;;;;3.22;1.08;;;7.50;99.90;;;;;;6209437;28;20054;-80
2023/11/08 02:15:05;;;;;;;0.70;0.63;;;7.60;99.90;;;;;;6201189;28;20435;-79
2023/11/08 02:18:07;;;;;;;0.90;0.75;;;7.70;99.90;;;;;;6217916;28;20092;-80
2023/11/08 02:21:09;;;;;;;4.57;0.90;;;7.80;99.90;;;;;;6218497;28;20434;-80
2023/11/08 02:28:10;;;;;;;3.08;1.27;;;7.90;99.90;;;;;;6211040;28;20034;-80
2023/11/08 02:31:11;;;;;;;3.78;0.93;;;7.90;99.90;;;;;;6206704;28;20043;-79
2023/11/08 02:34:13;;;;;;;12.02;2.15;;;7.80;99.90;;;;;;6218167;28;20053;-77
2023/11/08 02:37:15;;;;;;;4.88;1.00;;;7.80;99.90;;;;;;6210613;28;20047;-80
2023/11/08 02:40:17;;;;;;;2.33;1.13;;;7.80;99.90;;;;;;6203036;28;20042;-80
2023/11/08 02:43:22;;;;;;;1.40;0.88;;;7.80;99.90;;;;;;6202238;28;20050;-80
2023/11/08 02:46:25;;;;;;;2.65;0.80;;;7.90;99.90;;;;;;6202966;28;20499;-80
2023/11/08 02:49:30;;;;;;;4.43;1.52;;;7.90;99.90;;;;;;6202210;28;20050;-79
2023/11/08 02:52:32;;;;;;;7.07;1.10;;;8.00;99.90;;;;;;6201506;28;20133;-79
2023/11/08 02:55:35;;;;;;;2.25;1.35;;;8.00;99.90;;;;;;6201489;28;20038;-78
2023/11/08 02:58:38;;;;;;;1.92;1.08;;;8.10;99.90;;;;;;6201921;28;20042;-79
2023/11/08 03:01:40;;;;;;;4.22;1.35;;;8.20;99.90;;;;;;6202290;28;20046;-79
2023/11/08 03:04:42;;;;;;;6.22;1.50;;;8.30;99.90;;;;;;6209522;28;20058;-79
2023/11/08 03:07:44;;;;;;;3.17;1.17;;;8.30;99.90;;;;;;6210798;28;20046;-80
2023/11/08 03:10:46;;;;;;;2.13;1.20;;;8.40;99.90;;;;;;6208805;28;20042;-80
2023/11/08 03:13:49;;;;;;;4.82;1.52;;;8.50;99.90;;;;;;6210300;28;20049;-78
2023/11/08 03:16:51;;;;;;;1.40;1.00;;;8.50;99.90;;;;;;6211043;28;20052;-80
2023/11/08 03:19:52;;;;;;;4.63;1.42;;;8.50;99.90;;;;;;6209104;28;20049;-79
2023/11/08 03:22:54;;;;;;;3.10;0.75;;;8.50;99.90;;;;;;6205337;28;20129;-78
2023/11/08 03:25:56;;;;;;;1.60;0.75;;;8.50;99.90;;;;;;6214811;28;20057;-79
2023/11/08 03:28:59;;;;;;;2.55;1.55;;;8.50;99.90;;;;;;6206765;28;20054;-80
2023/11/08 03:32:01;;;;;;;7.53;0.95;;;8.60;99.90;;;;;;6207684;28;20046;-80
2023/11/08 03:35:03;;;;;;;0.90;0.60;;;8.60;99.90;;;;;;6206217;28;20586;-80
2023/11/08 03:38:04;;;;;;;1.23;0.70;;;8.60;99.90;;;;;;6205652;28;20042;-79
2023/11/08 03:41:06;;;;;;;1.08;0.70;;;8.60;99.90;;;;;;6205428;28;20046;-78
2023/11/08 03:44:09;;;;;;;1.67;0.98;;;8.60;99.90;;;;;;6205039;28;20415;-80
2023/11/08 03:47:11;;;;;;;1.80;0.95;;;8.60;99.90;;;;;;6220503;28;20045;-79
2023/11/08 03:50:12;;;;;;;1.60;1.02;;;8.60;99.90;;;;;;6229660;28;20053;-78
2023/11/08 03:53:14;;;;;;;5.97;1.52;;;8.60;99.90;;;;;;6230106;28;20049;-79
2023/11/08 03:56:17;;;;;;;2.03;1.20;;;8.60;99.90;;;;;;6229842;28;20045;-78
2023/11/08 03:59:20;;;;;;;2.65;1.23;;;8.50;99.90;;;;;;6220752;28;20046;-77
2023/11/08 04:02:22;;;;;;;3.63;1.02;;;8.50;99.90;;;;;;6204141;28;20046;-80
2023/11/08 04:05:24;;;;;;;2.55;1.33;;;8.40;99.90;;;;;;6204610;28;20047;-80
2023/11/08 04:08:25;;;;;;;3.03;1.40;;;8.30;99.90;;;;;;6204289;28;20496;-80
2023/11/08 04:11:27;;;;;;;1.73;1.30;;;8.20;99.90;;;;;;6207714;28;20046;-79
2023/11/08 04:14:30;;;;;;;4.47;1.23;;;8.20;99.90;;;;;;6216877;28;20049;-79
2023/11/08 04:17:32;;;;;;;0.93;0.80;;;8.10;99.90;;;;;;6209958;28;20042;-78
2023/11/08 04:20:34;;;;;;;2.80;1.20;;;8.10;99.90;;;;;;6204490;28;20046;-79
2023/11/08 04:23:35;;;;;;;1.58;1.48;;;8.00;99.90;;;;;;6215263;28;20042;-77
2023/11/08 04:26:37;;;;;;;8.50;1.65;;;7.90;99.90;;;;;;6205510;28;20041;-78
2023/11/08 04:29:41;;;;;;;2.50;1.40;;;7.90;99.90;;;;;;6209674;28;20045;-77
2023/11/08 04:32:43;;;;;;;2.85;1.00;;;7.80;99.90;;;;;;6223182;28;20423;-79
2023/11/08 04:35:45;;;;;;;4.07;1.65;;;7.80;99.90;;;;;;6217845;28;20100;-79
2023/11/08 04:38:46;;;;;;;2.05;1.40;;;7.80;99.90;;;;;;6215338;28;20426;-79
2023/11/08 04:41:49;;;;;;;1.90;1.25;;;7.80;99.90;;;;;;6216426;28;20522;-79
2023/11/08 04:44:52;;;;;;;2.58;1.05;;;7.80;99.90;;;;;;6212354;28;20506;-78
2023/11/08 04:47:54;;;;;;;1.45;0.95;;;7.80;99.90;;;;;;6208747;28;20615;-78
2023/11/08 04:50:55;;;;;;;1.83;1.00;;;7.90;99.90;;;;;;6206504;28;20038;-78
2023/11/08 04:53:57;;;;;;;10.10;1.20;;;8.00;99.90;;;;;;6208368;28;20057;-78
2023/11/08 04:56:59;;;;;;;3.53;1.02;;;8.00;99.90;;;;;;6210735;28;20050;-79
2023/11/08 05:00:05;;;;;;;2.75;1.10;;;8.00;99.90;;;;;;6215256;28;20418;-79
2023/11/08 05:03:07;;;;;;;1.70;1.40;;;8.10;99.90;;;;;;6210249;28;20049;-79
2023/11/08 05:06:09;;;;;;;4.75;1.20;;;8.10;99.90;;;;;;6218050;28;20042;-78
2023/11/08 05:09:15;;;;;;;1.40;1.30;;;8.10;99.90;;;;;;6211884;28;20048;-79
2023/11/08 05:12:16;;;;;;;3.35;0.98;;;8.20;99.90;;;;;;6212405;28;20128;-78
2023/11/08 05:15:19;;;;;;;2.45;1.30;;;8.20;99.90;;;;;;6214998;28;20169;-77
2023/11/08 05:18:22;;;;;;;6.95;1.35;;;8.20;99.90;;;;;;6216041;28;20048;-78
2023/11/08 05:21:24;;;;;;;5.55;1.20;;;8.20;99.90;;;;;;6212066;28;20043;-79
2023/11/08 05:24:26;;;;;;;1.80;1.13;;;8.20;99.90;;;;;;6217204;28;20057;-79
2023/11/08 05:27:28;;;;;;;6.07;1.20;;;8.20;99.90;;;;;;6211309;28;20134;-79
2023/11/08 05:30:31;;;;;;;0.82;0.80;;;8.30;99.90;;;;;;6202528;28;20400;-79
2023/11/08 05:33:33;;;;;;;2.28;1.40;;;8.30;99.90;;;;;;6202730;28;20068;-79
2023/11/08 05:36:36;;;;;;;1.80;1.00;;;8.30;99.90;;;;;;6197579;28;20459;-79
2023/11/08 05:39:37;;;;;;;3.85;1.45;;;8.30;99.90;;;;;;6198452;28;20046;-78
2023/11/08 05:42:39;;;;;;;2.90;1.33;;;8.30;99.90;;;;;;6197079;28;20048;-78
2023/11/08 05:45:42;;;;;;;1.48;1.20;;;8.30;99.90;;;;;;6197376;28;20046;-79
2023/11/08 05:48:44;;;;;;;3.38;1.42;;;8.30;99.90;;;;;;6197479;28;20043;-77
2023/11/08 05:51:46;;;;;;;3.47;1.40;;;8.30;99.90;;;;;;6205642;28;20424;-78
2023/11/08 05:54:47;;;;;;;3.20;1.35;;;8.30;99.90;;;;;;6208076;28;20038;-78
2023/11/08 05:57:49;;;;;;;4.72;1.80;;;8.30;99.90;;;;;;6212721;28;20046;-79
2023/11/08 06:00:52;;;;;;;4.00;1.73;;;8.30;99.90;;;;;;6204575;28;20046;-78
2023/11/08 06:03:55;;;;;;;1.95;1.20;;;8.20;99.90;;;;;;6197881;28;20058;-77
2023/11/08 06:06:57;;;;;;;3.65;1.27;;;8.20;99.90;;;;;;6203161;28;20049;-78
2023/11/08 06:10:00;;;;;;;1.85;1.52;;;8.10;99.90;;;;;;6207713;28;20046;-77
2023/11/08 06:13:02;;;;;;;1.83;1.30;;;8.10;99.90;;;;;;6202822;28;20052;-78
2023/11/08 06:16:06;;;;;;;2.33;1.20;;;8.00;99.90;;;;;;6197598;28;20054;-78
2023/11/08 06:19:08;;;;;;;1.80;0.70;;;8.00;99.90;;;;;;6195858;28;20051;-76
2023/11/08 06:22:10;;;;;;;1.88;1.45;;;8.00;99.90;;;;;;6212839;28;20054;-77
2023/11/08 06:25:11;;;;;;;1.45;1.10;;;8.00;99.90;;;;;;6196654;28;20120;-77
2023/11/08 06:28:13;;;;;;;4.30;1.90;;;8.00;99.90;;;;;;6197108;28;20389;-79
2023/11/08 06:31:16;;;;;;;5.07;1.10;;;8.00;99.90;;;;;;6196277;28;20080;-78
2023/11/08 06:34:18;;;;;;;3.00;2.17;;;8.00;99.90;;;;;;6203343;28;20084;-78
2023/11/08 06:37:19;;;;;;;1.98;1.13;;;7.90;99.90;;;;;;6204887;28;20050;-78
2023/11/08 06:40:22;;;;;;;3.05;1.40;;;7.90;99.90;;;;;;6196276;28;20050;-77
2023/11/08 06:43:24;;;;;;;2.05;1.27;;;8.00;99.90;;;;;;6196058;28;20057;-78
2023/11/08 06:46:27;;;;;;;3.67;0.90;;;8.00;99.90;;;;;;6195783;28;20054;-78
2023/11/08 06:49:29;;;;;;;1.17;0.70;;;8.10;99.90;;;;;;6169467;28;20050;-78
2023/11/08 06:52:30;;;;;;;2.63;1.45;;;8.10;99.90;;;;;;6196632;28;20050;-79
2023/11/08 06:59:29;;;;;;;4.82;1.58;;;8.30;99.90;;;;;;6220529;28;20097;-79
2023/11/08 07:02:33;;;;;;;2.42;1.13;;;8.30;99.90;;;;;;6211458;28;20042;-77
2023/11/08 07:05:35;;;;;;;6.18;2.40;;;8.40;99.90;;;;;;6205124;28;20064;-78
2023/11/08 07:08:36;;;;;;;1.80;1.50;;;8.40;99.90;;;;;;6199447;28;20057;-78
2023/11/08 07:11:38;;;;;;;3.13;1.25;;;8.50;99.90;;;;;;6211121;28;20055;-78
2023/11/08 07:14:41;;;;;;;3.63;1.73;;;8.50;99.90;;;;;;6205008;28;20046;-79
2023/11/08 07:17:45;;;;;;;2.92;1.77;;;8.50;99.90;;;;;;6196833;28;20503;-77
2023/11/08 07:20:47;;;;;;;7.45;1.70;;;8.50;99.90;;;;;;6204972;28;20043;-79
2023/11/08 07:23:49;;;;;;;2.70;1.70;;;8.60;99.90;;;;;;6197327;28;20062;-79
2023/11/08 07:26:51;;;;;;;10.60;1.60;;;8.60;99.90;;;;;;6199712;28;20046;-78
2023/11/08 07:29:53;;;;;;;1.02;1.02;;;8.70;99.90;;;;;;6212497;28;20140;-79
2023/11/08 07:32:56;;;;;;;3.58;1.00;;;8.70;99.90;;;;;;6221334;28;20057;-80
2023/11/08 07:35:58;;;;;;;1.15;0.80;;;8.80;99.90;;;;;;6217457;28;20046;-78
2023/11/08 07:39:01;;;;;;;5.53;1.27;;;8.90;99.90;;;;;;6217224;28;20037;-77
2023/11/08 07:42:03;;;;;;;3.22;1.95;;;9.00;99.90;;;;;;6220315;28;20065;-77
2023/11/08 07:45:06;;;;;;;1.48;1.38;;;9.10;99.90;;;;;;6213825;28;20415;-76
2023/11/08 07:48:09;;;;;;;3.05;1.27;;;9.30;99.90;;;;;;6208852;28;20046;-76
2023/11/08 07:51:11;;;;;;;2.90;1.00;;;9.40;99.90;;;;;;6214911;28;20053;-78
2023/11/08 07:54:13;;;;;;;1.20;1.10;;;9.50;99.90;;;;;;6218172;28;20049;-78
2023/11/08 07:57:15;;;;;;;1.33;1.13;;;9.60;99.90;;;;;;6215605;28;20041;-78
2023/11/08 08:00:22;;;;;;;1.85;0.82;;;9.70;99.90;;;;;;6217421;28;20046;-79
2023/11/08 08:03:25;;;;;;;2.70;2.50;;;9.90;99.90;;;;;;6210586;28;20123;-78
2023/11/08 08:06:27;;;;;;;2.05;1.00;;;9.90;99.90;;;;;;6209086;28;20042;-79
2023/11/08 08:09:29;;;;;;;4.72;0.90;;;9.90;99.90;;;;;;6217013;28;20042;-79
2023/11/08 08:12:30;;;;;;;3.78;1.33;;;9.80;99.90;;;;;;6224452;28;20684;-78
2023/11/08 08:15:32;;;;;;;2.72;1.13;;;9.70;99.90;;;;;;6211766;28;20043;-77
2023/11/08 08:18:36;;;;;;;3.25;1.40;;;9.60;99.90;;;;;;6217785;28;20046;-80
2023/11/08 08:21:38;;;;;;;1.95;1.58;;;9.60;99.90;;;;;;6212693;28;20046;-76
2023/11/08 08:24:39;;;;;;;1.83;0.88;;;9.70;99.90;;;;;;6222826;28;20530;-76
2023/11/08 08:27:42;;;;;;;1.92;1.15;;;9.70;99.90;;;;;;6214060;28;20538;-76
2023/11/08 08:30:44;;;;;;;4.90;1.33;;;9.80;99.90;;;;;;6215196;28;20125;-77
2023/11/08 08:33:47;;;;;;;2.35;1.15;;;9.90;99.90;;;;;;6199246;28;20431;-77
2023/11/08 08:36:49;;;;;;;2.08;1.30;;;9.90;99.90;;;;;;6218931;28;20049;-78
2023/11/08 08:39:50;;;;;;;1.90;1.27;;;10.00;99.90;;;;;;6220779;28;20516;-77
2023/11/08 08:42:52;;;;;;;3.90;1.33;;;10.00;99.90;;;;;;6214834;28;20415;-78
2023/11/08 08:45:54;;;;;;;1.85;1.13;;;10.00;99.90;;;;;;6217670;28;20038;-76
2023/11/08 08:48:57;;;;;;;6.90;1.30;;;10.00;99.90;;;;;;6215051;28;20050;-79
2023/11/08 08:51:59;;;;;;;4.82;2.47;;;10.00;99.90;;;;;;6223460;28;20483;-78
2023/11/08 08:55:01;;;;;;;3.30;0.90;;;10.00;99.90;;;;;;6214875;28;20049;-76
2023/11/08 08:58:04;;;;;;;4.97;1.23;;;9.90;99.90;;;;;;6215091;28;20041;-76
2023/11/08 09:05:05;;;;;;;6.80;1.60;;;10.00;99.90;;;;;;6213267;28;20458;-76
2023/11/08 09:08:07;;;;;;;2.78;1.60;;;10.00;99.90;;;;;;6219928;28;20395;-77
2023/11/08 09:11:10;;;;;;;3.55;1.15;;;10.00;99.90;;;;;;6222627;28;20041;-76
2023/11/08 09:14:12;;;;;;;5.10;1.65;;;10.20;99.90;;;;;;6214540;28;20092;-76
2023/11/08 09:17:14;;;;;;;2.30;1.38;;;10.30;99.90;;;;;;6206374;28;20518;-76
2023/11/08 09:20:17;;;;;;;5.45;1.05;;;10.30;99.90;;;;;;6200546;28;20050;-78
2023/11/08 09:23:18;;;;;;;2.13;1.00;;;10.50;99.90;;;;;;6213258;28;20046;-77
2023/11/08 09:26:20;;;;;;;3.47;0.90;;;10.60;99.90;;;;;;6213587;28;20049;-76
2023/11/08 09:29:24;;;;;;;2.38;1.77;;;10.90;99.90;;;;;;6214303;28;20052;-74
2023/11/08 09:32:27;;;;;;;1.67;1.08;;;11.10;99.90;;;;;;6214095;28;20061;-77
2023/11/08 09:35:30;;;;;;;2.97;1.20;;;11.30;99.90;;;;;;6205972;28;20050;-76
2023/11/08 09:38:31;;;;;;;2.13;1.15;;;11.40;99.90;;;;;;6213972;28;20420;-75
2023/11/08 09:41:33;;;;;;;0.95;0.93;;;11.50;99.90;;;;;;6198296;28;20043;-77
2023/11/08 09:44:36;;;;;;;4.75;0.70;;;11.60;99.90;;;;;;6212734;28;20046;-78
2023/11/08 09:47:38;;;;;;;1.15;0.95;;;11.90;99.90;;;;;;6214174;28;20041;-76
2023/11/08 09:50:41;;;;;;;1.95;1.10;;;12.10;99.90;;;;;;6206893;28;20076;-76
2023/11/08 09:53:44;;;;;;;4.47;2.10;;;12.50;99.90;;;;;;6221466;28;20426;-77
2023/11/08 09:56:46;;;;;;;1.98;1.02;;;12.90;99.90;;;;;;6212910;28;20046;-75
2023/11/08 09:59:48;;;;;;;8.23;1.30;;;13.20;99.90;;;;;;6220515;28;20068;-77
2023/11/08 10:02:53;;;;;;;2.08;1.02;;;13.30;99.90;;;;;;6203801;28;20048;-77
2023/11/08 10:13:52;;;;;;;0.52;0.45;;;13.10;99.90;;;;;;6211638;28;20038;-76
2023/11/08 10:16:54;;;;;;;0.90;0.90;;;13.20;99.90;;;;;;6213299;28;20400;-76
2023/11/08 10:19:56;;;;;;;0.98;0.65;;;13.30;99.90;;;;;;6216924;28;20188;-77
2023/11/08 10:22:58;;;;;;;1.13;0.82;;;13.40;99.90;;;;;;6217243;28;20054;-76
2023/11/08 10:26:18;;;;;;;1.20;0.55;;;13.50;99.90;;;;;;6204635;28;20034;-79
2023/11/08 10:29:26;;;;;;;0.95;0.52;;;13.60;99.90;;;;;;6211330;28;20173;-77
2023/11/08 10:32:28;;;;;;;4.20;1.00;;;13.90;99.90;;;;;;6213978;28;20471;-76
2023/11/08 10:35:36;;;;;;;1.25;0.90;;;14.00;99.90;;;;;;6212802;28;20919;-79
2023/11/08 10:38:39;;;;;;;;;;;14.10;99.90;;;;;;6212400;28;20423;-76
2023/11/08 10:41:42;;;;;;;0.52;0.38;;;14.20;99.90;;;;;;6205855;28;19929;-76
2023/11/08 10:44:46;;;;;;;0.47;0.40;;;14.30;99.90;;;;;;6211223;28;20459;-79
2023/11/08 10:47:48;;;;;;;1.92;1.00;;;14.70;99.90;;;;;;6207239;28;20412;-76
2023/11/08 10:50:52;;;;;;;0.50;0.50;;;15.10;99.90;;;;;;6212552;28;20049;-76
2023/11/08 10:53:56;;;;;;;1.42;0.63;;;15.30;99.90;;;;;;6209894;28;20049;-75
2023/11/08 10:57:00;;;;;;;1.80;0.57;;;15.20;99.90;;;;;;6208326;28;20046;-76
2023/11/08 11:00:07;;;;;;;0.52;0.47;;;15.40;99.90;;;;;;6209561;28;20057;-75
2023/11/08 11:03:10;;;;;;;0.30;0.30;;;15.40;99.90;;;;;;6217399;28;20038;-76
2023/11/08 11:06:13;;;;;;;0.20;0.20;;;15.40;99.90;;;;;;6220653;28;20129;-77
2023/11/08 11:09:16;;;;;;;3.10;0.65;;;15.30;99.90;;;;;;6215411;28;20124;-76
2023/11/08 11:12:24;;;;;;;1.02;0.63;;;15.20;99.90;;;;;;6219272;28;20422;-77
2023/11/08 11:15:36;;;;;;;0.65;0.40;;;15.10;99.90;;;;;;6205771;28;20057;-76
2023/11/08 11:18:43;;;;;;;0.45;0.45;;;15.10;99.90;;;;;;6213354;28;20410;-77
2023/11/08 11:21:48;;;;;;;1.35;0.63;;;15.40;99.90;;;;;;6204293;28;20724;-75
2023/11/08 11:24:52;;;;;;;0.70;0.52;;;15.50;99.90;;;;;;6225020;28;20054;-76
2023/11/08 11:27:53;;;;;;;1.13;0.65;;;15.40;99.90;;;;;;6225648;28;20072;-76
2023/11/08 11:31:32;;;;;;;1.33;0.30;;;15.40;99.90;;;;;;6217205;28;20550;-75
2023/11/08 11:34:44;;;;;;;1.00;0.30;;;15.30;99.90;;;;;;6208801;28;20057;-77
2023/11/08 11:38:23;;;;;;;1.88;0.85;;;15.10;99.90;;;;;;6245764;22;20286;-77
2023/11/08 11:41:26;;;;;;;1.50;0.40;;;14.90;99.90;;;;;;6248124;28;20055;-77
2023/11/08 11:44:37;;;;;;;0.70;0.32;;;14.80;99.90;;;;;;6255278;28;20060;-79
2023/11/08 11:47:41;;;;;;;0.45;0.40;;;15.10;99.90;;;;;;6231634;28;20054;-77
2023/11/08 11:50:43;;;;;;;0.45;0.40;;;15.10;99.90;;;;;;6221055;28;20050;-79
2023/11/08 11:53:46;;;;;;;0.32;0.32;;;14.80;99.90;;;;;;6219248;28;20054;-80
2023/11/08 11:56:48;;;;;;;4.47;0.60;;;14.60;99.90;;;;;;6236891;28;20060;-79
2023/11/08 11:59:51;;;;;;;0.30;0.30;;;14.40;99.90;;;;;;6218228;28;20729;-80
2023/11/08 12:02:54;;;;;;;0.43;0.38;;;14.20;99.90;;;;;;6224060;28;20053;-79
2023/11/08 12:05:56;;;;;;;1.65;0.50;;;14.10;99.90;;;;;;6230760;28;20052;-79
2023/11/08 12:08:58;;;;;;;1.75;1.25;;;14.10;99.90;;;;;;6230605;28;20060;-79
2023/11/08 12:11:59;;;;;;;0.55;0.50;;;14.20;99.90;;;;;;6226384;28;20046;-79
2023/11/08 12:15:13;;;;;;;0.52;0.52;;;14.30;99.90;;;;;;6216174;28;20042;-79
2023/11/08 12:18:16;;;;;;;0.98;0.60;;;14.30;99.90;;;;;;6227105;28;20050;-79
2023/11/08 12:21:18;;;;;;;1.60;0.43;;;14.30;99.90;;;;;;6221682;28;20479;-79
2023/11/08 12:24:20;;;;;;;1.00;0.77;;;14.10;99.90;;;;;;6236654;28;20046;-78
2023/11/08 12:27:25;;;;;;;0.98;0.70;;;14.10;99.90;;;;;;6220028;28;20050;-78
2023/11/08 12:30:28;;;;;;;1.17;0.73;;;13.90;99.90;;;;;;6219458;28;20050;-79
2023/11/08 12:33:31;;;;;;;1.30;0.55;;;13.90;99.90;;;;;;6219601;28;20414;-79
2023/11/08 12:36:37;;;;;;;0.70;0.40;;;14.20;99.90;;;;;;6223711;28;20046;-79
2023/11/08 12:39:38;;;;;;;0.20;0.20;;;14.40;99.90;;;;;;6217255;28;20495;-78
2023/11/08 12:42:40;;;;;;;0.40;0.40;;;14.40;99.90;;;;;;6213267;28;20050;-78
2023/11/08 12:45:43;;;;;;;0.75;0.45;;;14.20;99.90;;;;;;6213148;28;20057;-80
2023/11/08 12:48:56;;;;;;;1.02;0.43;;;14.20;99.90;;;;;;6213564;28;20040;-78
2023/11/08 12:52:03;;;;;;;1.38;0.75;;;14.30;99.90;;;;;;6214445;28;20053;-78
2023/11/08 12:55:05;;;;;;;1.73;0.77;;;14.50;99.90;;;;;;6211054;28;20423;-79
2023/11/08 12:58:24;;;;;;;3.13;0.63;;;14.80;99.90;;;;;;6200970;28;20042;-77
2023/11/08 13:01:26;;;;;;;0.85;0.50;;;14.90;99.90;;;;;;6199181;28;20376;-77
2023/11/08 13:04:29;;;;;;;1.17;0.50;;;15.00;99.90;;;;;;6215068;28;20049;-78
2023/11/08 13:07:31;;;;;;;9.48;7.30;;;14.90;99.90;;;;;;6215798;28;20053;-79
2023/11/08 13:10:32;;;;;;;9.60;6.75;;;14.80;99.90;;;;;;6222207;28;20076;-79
2023/11/08 13:13:34;;;;;;;9.15;4.97;;;14.90;99.90;;;;;;6211621;28;20065;-79
2023/11/08 13:16:36;;;;;;;1.23;0.73;;;14.70;99.90;;;;;;6211724;28;20373;-78
2023/11/08 13:19:39;;;;;;;4.88;0.95;;;14.50;99.90;;;;;;6201158;28;20108;-80
2023/11/08 13:22:43;;;;;;;11.25;7.90;;;14.30;99.90;;;;;;6208887;28;20046;-79
2023/11/08 13:25:46;;;;;;;1.48;1.00;;;14.20;99.90;;;;;;6205074;28;20046;-80
2023/11/08 13:28:48;;;;;;;1.25;0.63;;;14.10;99.90;;;;;;6207304;28;20117;-78
2023/11/08 13:31:49;;;;;;;2.85;1.40;;;14.10;99.90;;;;;;6219524;28;20058;-78
2023/11/08 13:34:52;;;;;;;0.50;0.40;;;14.00;99.90;;;;;;6203612;28;20050;-79
2023/11/08 13:37:54;;;;;;;1.33;1.05;;;14.00;99.90;;;;;;6211021;28;20050;-78
2023/11/08 13:40:56;;;;;;;2.92;2.70;;;13.90;99.90;;;;;;6203846;28;20042;-78
2023/11/08 13:43:58;;;;;;;0.77;0.60;;;13.80;99.90;;;;;;6206317;28;20050;-78
2023/11/08 13:47:00;;;;;;;3.00;0.70;;;13.70;99.90;;;;;;6202729;28;20050;-78
2023/11/08 13:50:05;;;;;;;4.35;0.63;;;13.70;99.90;;;;;;6203809;28;20049;-78
2023/11/08 13:53:07;;;;;;;3.05;1.42;;;13.60;99.90;;;;;;6220018;28;20145;-78
2023/11/08 13:56:09;;;;;;;0.93;0.50;;;13.50;99.90;;;;;;6234748;28;20058;-77
2023/11/08 13:59:10;;;;;;;1.00;0.60;;;13.40;99.90;;;;;;6205786;28;20046;-77
2023/11/08 14:02:12;;;;;;;1.52;0.75;;;13.40;99.90;;;;;;6200219;28;20046;-78
2023/11/08 14:05:15;;;;;;;0.68;0.38;;;13.30;99.90;;;;;;6217431;28;20053;-78
2023/11/08 14:08:17;;;;;;;1.10;0.57;;;13.30;99.90;;;;;;6203322;28;20101;-78
2023/11/08 14:11:19;;;;;;;3.58;1.05;;;13.20;99.90;;;;;;6210984;28;20045;-78
2023/11/08 14:14:21;;;;;;;0.85;0.75;;;13.20;99.90;;;;;;6207626;28;20060;-78
2023/11/08 14:17:24;;;;;;;5.45;0.82;;;13.00;99.90;;;;;;6203210;28;20053;-77
2023/11/08 14:20:27;;;;;;;1.80;0.52;;;12.90;99.90;;;;;;6221382;28;20054;-78
2023/11/08 14:23:28;;;;;;;1.45;0.50;;;12.70;99.90;;;;;;6216271;28;20058;-78
2023/11/08 14:26:30;;;;;;;7.40;6.63;;;12.70;99.90;;;;;;6213289;28;20053;-78
2023/11/08 14:29:32;;;;;;;3.15;2.13;;;12.70;99.90;;;;;;6199313;28;20065;-77
2023/11/08 14:32:33;;;;;;;2.72;2.05;;;12.70;99.90;;;;;;6212306;28;20056;-77
2023/11/08 14:35:36;;;;;;;0.90;0.80;;;12.60;99.90;;;;;;6215844;28;20054;-77
2023/11/08 14:38:38;;;;;;;0.93;0.50;;;12.60;99.90;;;;;;6212459;28;20434;-78
2023/11/08 14:41:40;;;;;;;1.52;1.42;;;12.60;99.90;;;;;;6204826;28;20052;-78
2023/11/08 14:44:47;;;;;;;1.60;0.47;;;12.50;99.90;;;;;;6198816;28;20054;-78
2023/11/08 14:47:49;;;;;;;1.42;0.60;;;12.50;99.90;;;;;;6213758;28;20152;-78
2023/11/08 14:50:52;;;;;;;1.13;0.30;;;12.40;99.90;;;;;;6205274;28;20050;-77
2023/11/08 14:53:55;;;;;;;0.80;0.60;;;12.60;99.90;;;;;;6212535;28;20176;-77
2023/11/08 14:56:59;;;;;;;0.40;0.40;;;12.80;99.90;;;;;;6214080;28;20539;-78
2023/11/08 15:00:00;;;;;;;1.80;1.30;;;13.10;99.90;;;;;;6215019;28;20144;-78
2023/11/08 15:03:04;;;;;;;0.80;0.63;;;13.30;99.90;;;;;;6223536;28;20053;-77
2023/11/08 15:06:11;;;;;;;4.60;0.95;;;13.40;99.90;;;;;;6214284;28;20042;-78
2023/11/08 15:09:13;;;;;;;1.60;0.40;;;13.40;99.90;;;;;;6213998;28;20046;-78
2023/11/08 15:12:15;;;;;;;1.30;0.77;;;13.40;99.90;;;;;;6210868;28;20053;-77
2023/11/08 15:15:17;;;;;;;0.80;0.70;;;13.40;99.90;;;;;;6200791;28;20109;-77
2023/11/08 15:18:18;;;;;;;0.45;0.40;;;13.40;99.90;;;;;;6201942;28;20060;-78
2023/11/08 15:21:22;;;;;;;0.98;0.98;;;13.30;99.90;;;;;;6214837;28;20054;-78
2023/11/08 15:24:23;;;;;;;0.47;0.40;;;13.00;99.90;;;;;;6205338;28;20053;-77
2023/11/08 15:27:26;;;;;;;1.95;0.57;;;12.90;99.90;;;;;;6198777;28;20133;-78
2023/11/08 15:30:29;;;;;;;0.80;0.50;;;12.70;99.90;;;;;;6198191;28;20054;-78
2023/11/08 15:33:31;;;;;;;0.50;0.50;;;12.50;99.90;;;;;;6206197;28;20452;-77
2023/11/08 15:36:34;;;;;;;1.95;0.60;;;12.40;99.90;;;;;;6211084;28;20196;-78
2023/11/08 15:39:36;;;;;;;0.43;0.30;;;12.20;99.90;;;;;;6213846;28;20462;-78
2023/11/08 15:42:38;;;;;;;0.60;0.50;;;12.00;99.90;;;;;;6201763;28;20046;-78
2023/11/08 15:45:39;;;;;;;2.72;0.43;;;11.90;99.90;;;;;;6207535;28;20473;-78
2023/11/08 15:48:43;;;;;;;0.57;0.57;;;11.70;99.90;;;;;;6211953;28;20046;-78
2023/11/08 15:51:49;;;;;;;1.80;1.13;;;11.60;99.90;;;;;;6221444;28;20057;-78
2023/11/08 15:54:50;;;;;;;1.30;1.20;;;11.50;99.90;;;;;;6211793;28;20058;-78
2023/11/08 15:57:52;;;;;;;1.27;0.60;;;11.30;99.90;;;;;;6233990;28;20041;-77
2023/11/08 16:00:54;;;;;;;0.73;0.63;;;11.20;99.90;;;;;;6214659;28;20065;-79
2023/11/08 16:03:57;;;;;;;0.75;0.50;;;11.20;99.90;;;;;;6209656;28;20062;-79
2023/11/08 16:07:00;;;;;;;0.73;0.52;;;11.00;99.90;;;;;;6223186;28;20054;-77
2023/11/08 16:10:02;;;;;;;0.70;0.70;;;10.90;99.90;;;;;;6217575;28;20125;-78
2023/11/08 16:13:05;;;;;;;0.90;0.57;;;10.70;99.90;;;;;;6207040;28;20132;-78
2023/11/08 16:16:07;;;;;;;2.72;0.68;;;10.60;99.90;;;;;;6212749;28;20062;-77
2023/11/08 16:19:09;;;;;;;2.05;0.50;;;10.30;99.90;;;;;;6207408;28;20134;-78
2023/11/08 16:22:12;;;;;;;1.08;0.90;;;10.10;99.90;;;;;;6207589;28;20046;-78
2023/11/08 16:25:14;;;;;;;6.55;0.57;;;10.00;99.90;;;;;;6223116;28;20495;-79
2023/11/08 16:28:16;;;;;;;0.40;0.40;;;9.80;99.90;;;;;;6219935;28;20495;-77
2023/11/08 16:31:19;;;;;;;1.17;0.50;;;9.60;99.90;;;;;;6231477;28;20050;-78
2023/11/08 16:34:20;;;;;;;1.55;0.50;;;9.50;99.90;;;;;;6209873;28;20054;-78
2023/11/08 16:37:24;;;;;;;0.50;0.50;;;9.30;99.90;;;;;;6217486;28;20046;-77
2023/11/08 16:40:27;;;;;;;7.15;0.85;;;9.20;99.90;;;;;;6223197;28;20514;-78